sensor_id;sensor_type;location;lat;lon;timestamp;pressure;altitude;pressure_sealevel;temperature;humidity
73692;BME280;61996;49.910;35.562;2023-05-23T00:01:59;99214.28;;;22.91;43.50
73692;BME280;61996;49.910;35.562;2023-05-23T00:05:03;99221.97;;;22.94;43.43
73692;BME280;61996;49.910;35.562;2023-05-23T00:08:07;99205.72;;;22.96;43.55
73692;BME280;61996;49.910;35.562;2023-05-23T00:11:10;99213.59;;;22.97;43.39
73692;BME280;61996;49.910;35.562;2023-05-23T00:14:13;99204.53;;;22.98;43.32
73692;BME280;61996;49.910;35.562;2023-05-23T00:17:18;99209.53;;;23.02;43.32
73692;BME280;61996;49.910;35.562;2023-05-23T00:20:22;99210.19;;;23.04;43.42
73692;BME280;61996;49.910;35.562;2023-05-23T00:23:25;99202.63;;;23.07;43.20
73692;BME280;61996;49.910;35.562;2023-05-23T00:26:30;99199.09;;;23.07;43.33
73692;BME280;61996;49.910;35.562;2023-05-23T00:29:34;99197.25;;;23.07;43.36
73692;BME280;61996;49.910;35.562;2023-05-23T00:32:38;99186.19;;;23.10;43.45
73692;BME280;61996;49.910;35.562;2023-05-23T00:35:41;99184.16;;;23.12;43.38
73692;BME280;61996;49.910;35.562;2023-05-23T00:38:44;99195.53;;;23.14;43.13
73692;BME280;61996;49.910;35.562;2023-05-23T00:41:47;99190.34;;;23.13;43.42
73692;BME280;61996;49.910;35.562;2023-05-23T00:44:53;99184.66;;;23.16;43.40
73692;BME280;61996;49.910;35.562;2023-05-23T00:47:57;99192.69;;;23.16;43.57
73692;BME280;61996;49.910;35.562;2023-05-23T00:51:00;99179.94;;;23.18;43.09
73692;BME280;61996;49.910;35.562;2023-05-23T00:54:04;99184.66;;;23.16;43.46
73692;BME280;61996;49.910;35.562;2023-05-23T00:57:07;99184.66;;;23.16;43.09
73692;BME280;61996;49.910;35.562;2023-05-23T01:00:10;99187.97;;;23.18;43.17
73692;BME280;61996;49.910;35.562;2023-05-23T01:03:15;99176.88;;;23.21;42.99
73692;BME280;61996;49.910;35.562;2023-05-23T01:06:19;99181.59;;;23.19;43.13
73692;BME280;61996;49.910;35.562;2023-05-23T01:09:22;99179.63;;;23.13;43.34
73692;BME280;61996;49.910;35.562;2023-05-23T01:12:26;99183.78;;;23.15;43.13
73692;BME280;61996;49.910;35.562;2023-05-23T01:15:31;99179.75;;;23.19;43.16
73692;BME280;61996;49.910;35.562;2023-05-23T01:18:39;99182.25;;;23.21;43.10
73692;BME280;61996;49.910;35.562;2023-05-23T01:21:44;99180.94;;;23.17;43.07
73692;BME280;61996;49.910;35.562;2023-05-23T01:24:54;99185.75;;;23.21;42.74
73692;BME280;61996;49.910;35.562;2023-05-23T01:27:59;99185.63;;;23.23;43.03
73692;BME280;61996;49.910;35.562;2023-05-23T01:31:02;99177.38;;;23.24;42.75
73692;BME280;61996;49.910;35.562;2023-05-23T01:34:06;99170.16;;;23.25;43.09
73692;BME280;61996;49.910;35.562;2023-05-23T01:37:09;99178.56;;;23.22;42.77
73692;BME280;61996;49.910;35.562;2023-05-23T01:40:14;99185.63;;;23.23;43.23
73692;BME280;61996;49.910;35.562;2023-05-23T01:43:19;99181.53;;;23.27;42.77
73692;BME280;61996;49.910;35.562;2023-05-23T01:46:21;99182.56;;;23.26;43.03
73692;BME280;61996;49.910;35.562;2023-05-23T01:49:25;99171.84;;;23.26;42.69
73692;BME280;61996;49.910;35.562;2023-05-23T01:52:29;99174.31;;;23.28;42.94
73692;BME280;61996;49.910;35.562;2023-05-23T01:55:31;99173.31;;;23.29;42.70
73692;BME280;61996;49.910;35.562;2023-05-23T01:58:36;99174.81;;;23.31;42.63
73692;BME280;61996;49.910;35.562;2023-05-23T02:01:39;99189.06;;;23.32;42.65
73692;BME280;61996;49.910;35.562;2023-05-23T02:04:42;99175.00;;;23.30;42.89
73692;BME280;61996;49.910;35.562;2023-05-23T02:07:45;99177.50;;;23.31;43.07
73692;BME280;61996;49.910;35.562;2023-05-23T02:10:48;99179.16;;;23.32;42.67
73692;BME280;61996;49.910;35.562;2023-05-23T02:13:52;99170.75;;;23.35;42.89
73692;BME280;61996;49.910;35.562;2023-05-23T02:16:55;99173.81;;;23.32;42.71
73692;BME280;61996;49.910;35.562;2023-05-23T02:19:58;99170.09;;;23.33;42.88
73692;BME280;61996;49.910;35.562;2023-05-23T02:23:01;99171.44;;;23.37;42.72
73692;BME280;61996;49.910;35.562;2023-05-23T02:26:03;99167.22;;;23.35;42.78
73692;BME280;61996;49.910;35.562;2023-05-23T02:29:08;99173.44;;;23.35;42.71
73692;BME280;61996;49.910;35.562;2023-05-23T02:32:10;99171.44;;;23.37;42.72
73692;BME280;61996;49.910;35.562;2023-05-23T02:35:13;99161.53;;;23.38;42.58
73692;BME280;61996;49.910;35.562;2023-05-23T02:38:16;99165.88;;;23.39;42.44
73692;BME280;61996;49.910;35.562;2023-05-23T02:41:20;99167.91;;;23.37;42.71
73692;BME280;61996;49.910;35.562;2023-05-23T02:44:24;99170.22;;;23.40;42.52
73692;BME280;61996;49.910;35.562;2023-05-23T02:47:27;99170.22;;;23.40;42.43
73692;BME280;61996;49.910;35.562;2023-05-23T02:50:30;99168.84;;;23.44;42.32
73692;BME280;61996;49.910;35.562;2023-05-23T02:53:33;99167.84;;;23.45;42.52
73692;BME280;61996;49.910;35.562;2023-05-23T02:56:35;99176.91;;;23.44;42.54
73692;BME280;61996;49.910;35.562;2023-05-23T02:59:39;99169.84;;;23.43;42.31
73692;BME280;61996;49.910;35.562;2023-05-23T03:02:42;99167.53;;;23.40;42.61
73692;BME280;61996;49.910;35.562;2023-05-23T03:05:45;99163.31;;;23.45;42.62
73692;BME280;61996;49.910;35.562;2023-05-23T03:08:48;99163.75;;;23.49;42.43
73692;BME280;61996;49.910;35.562;2023-05-23T03:11:51;99158.78;;;23.46;42.48
73692;BME280;61996;49.910;35.562;2023-05-23T03:14:55;99157.44;;;23.42;42.37
73692;BME280;61996;49.910;35.562;2023-05-23T03:17:59;99155.25;;;23.45;42.55
73692;BME280;61996;49.910;35.562;2023-05-23T03:21:02;99162.94;;;23.48;42.47
73692;BME280;61996;49.910;35.562;2023-05-23T03:24:05;99164.13;;;23.46;42.58
73692;BME280;61996;49.910;35.562;2023-05-23T03:27:08;99170.63;;;23.51;42.38
73692;BME280;61996;49.910;35.562;2023-05-23T03:30:12;99166.63;;;23.47;42.35
73692;BME280;61996;49.910;35.562;2023-05-23T03:33:15;99172.50;;;23.51;42.35
73692;BME280;61996;49.910;35.562;2023-05-23T03:36:18;99159.06;;;23.51;42.53
73692;BME280;61996;49.910;35.562;2023-05-23T03:39:22;99165.28;;;23.51;42.44
73692;BME280;61996;49.910;35.562;2023-05-23T03:42:26;99166.28;;;23.50;42.31
73692;BME280;61996;49.910;35.562;2023-05-23T03:45:30;99172.13;;;23.54;42.30
73692;BME280;61996;49.910;35.562;2023-05-23T03:48:33;99163.22;;;23.53;42.44
73692;BME280;61996;49.910;35.562;2023-05-23T03:51:36;99166.75;;;23.54;42.35
73692;BME280;61996;49.910;35.562;2023-05-23T03:54:39;99163.22;;;23.53;42.18
73692;BME280;61996;49.910;35.562;2023-05-23T03:57:42;99162.34;;;23.61;42.18
73692;BME280;61996;49.910;35.562;2023-05-23T04:00:46;99165.19;;;23.60;42.02
73692;BME280;61996;49.910;35.562;2023-05-23T04:03:48;99159.69;;;23.61;42.14
73692;BME280;61996;49.910;35.562;2023-05-23T04:06:54;99160.31;;;23.63;42.07
73692;BME280;61996;49.910;35.562;2023-05-23T04:09:58;99175.41;;;23.64;42.18
73692;BME280;61996;49.910;35.562;2023-05-23T04:13:01;99163.69;;;23.65;41.99
73692;BME280;61996;49.910;35.562;2023-05-23T04:16:05;99164.50;;;23.66;41.83
73692;BME280;61996;49.910;35.562;2023-05-23T04:19:08;99169.69;;;23.67;42.10
73692;BME280;61996;49.910;35.562;2023-05-23T04:22:12;99171.16;;;23.70;41.93
73692;BME280;61996;49.910;35.562;2023-05-23T04:25:15;99176.53;;;23.70;42.13
73692;BME280;61996;49.910;35.562;2023-05-23T04:28:19;99178.19;;;22.15;45.12
73692;BME280;61996;49.910;35.562;2023-05-23T04:31:23;99183.19;;;22.02;45.66
73692;BME280;61996;49.910;35.562;2023-05-23T04:34:26;99183.59;;;22.55;44.04
73692;BME280;61996;49.910;35.562;2023-05-23T04:37:29;99186.53;;;21.96;45.63
73692;BME280;61996;49.910;35.562;2023-05-23T04:40:33;99182.88;;;21.89;45.93
73692;BME280;61996;49.910;35.562;2023-05-23T04:43:36;99187.75;;;21.77;46.54
73692;BME280;61996;49.910;35.562;2023-05-23T04:46:44;99188.72;;;22.01;45.82
73692;BME280;61996;49.910;35.562;2023-05-23T04:49:47;99193.06;;;22.02;46.14
73692;BME280;61996;49.910;35.562;2023-05-23T04:52:49;99184.88;;;22.20;45.56
73692;BME280;61996;49.910;35.562;2023-05-23T04:55:52;99191.94;;;21.80;46.94
73692;BME280;61996;49.910;35.562;2023-05-23T04:58:55;99191.53;;;22.40;45.58
73692;BME280;61996;49.910;35.562;2023-05-23T05:01:59;99185.88;;;23.05;43.89
73692;BME280;61996;49.910;35.562;2023-05-23T05:05:02;99186.25;;;23.25;43.74
73692;BME280;61996;49.910;35.562;2023-05-23T05:08:05;99193.22;;;23.34;43.36
73692;BME280;61996;49.910;35.562;2023-05-23T05:11:08;99182.81;;;23.39;43.16
73692;BME280;61996;49.910;35.562;2023-05-23T05:14:11;99188.16;;;23.39;43.28
73692;BME280;61996;49.910;35.562;2023-05-23T05:17:15;99182.63;;;23.41;43.53
73692;BME280;61996;49.910;35.562;2023-05-23T05:20:19;99188.16;;;23.39;43.61
73692;BME280;61996;49.910;35.562;2023-05-23T05:23:24;99185.94;;;23.43;43.41
73692;BME280;61996;49.910;35.562;2023-05-23T05:26:29;99189.00;;;23.40;43.49
73692;BME280;61996;49.910;35.562;2023-05-23T05:29:32;99190.31;;;23.44;43.47
73692;BME280;61996;49.910;35.562;2023-05-23T05:32:36;99195.97;;;23.49;43.34
73692;BME280;61996;49.910;35.562;2023-05-23T05:35:39;99193.84;;;23.44;43.88
73692;BME280;61996;49.910;35.562;2023-05-23T05:38:42;99197.16;;;23.46;43.76
73692;BME280;61996;49.910;35.562;2023-05-23T05:41:44;99203.00;;;23.50;43.74
73692;BME280;61996;49.910;35.562;2023-05-23T05:44:47;99195.81;;;23.50;43.56
73692;BME280;61996;49.910;35.562;2023-05-23T05:47:51;99193.47;;;23.47;43.87
73692;BME280;61996;49.910;35.562;2023-05-23T05:50:54;99197.63;;;23.50;43.93
73692;BME280;61996;49.910;35.562;2023-05-23T05:53:57;99181.91;;;23.47;43.90
73692;BME280;61996;49.910;35.562;2023-05-23T05:57:00;99191.09;;;23.52;44.01
73692;BME280;61996;49.910;35.562;2023-05-23T06:00:03;99197.28;;;23.53;43.57
73692;BME280;61996;49.910;35.562;2023-05-23T06:03:13;99192.75;;;23.53;43.82
73692;BME280;61996;49.910;35.562;2023-05-23T06:06:16;99196.09;;;23.56;44.00
73692;BME280;61996;49.910;35.562;2023-05-23T06:09:20;99194.59;;;23.53;43.96
73692;BME280;61996;49.910;35.562;2023-05-23T06:12:22;99198.13;;;23.53;43.79
73692;BME280;61996;49.910;35.562;2023-05-23T06:15:25;99197.75;;;23.57;44.00
73692;BME280;61996;49.910;35.562;2023-05-23T06:18:29;99202.28;;;23.56;43.95
73692;BME280;61996;49.910;35.562;2023-05-23T06:21:32;99200.69;;;23.70;43.45
73692;BME280;61996;49.910;35.562;2023-05-23T06:24:35;99194.03;;;23.66;43.52
73692;BME280;61996;49.910;35.562;2023-05-23T06:27:38;99197.28;;;21.64;50.17
73692;BME280;61996;49.910;35.562;2023-05-23T06:30:41;99200.13;;;21.38;51.45
73692;BME280;61996;49.910;35.562;2023-05-23T06:33:46;99202.06;;;21.27;52.16
73692;BME280;61996;49.910;35.562;2023-05-23T06:36:48;99195.78;;;21.37;51.74
73692;BME280;61996;49.910;35.562;2023-05-23T06:39:51;99200.38;;;21.10;52.74
73692;BME280;61996;49.910;35.562;2023-05-23T06:42:54;99196.06;;;21.25;52.30
73692;BME280;61996;49.910;35.562;2023-05-23T06:45:57;99195.88;;;21.19;52.70
73692;BME280;61996;49.910;35.562;2023-05-23T06:49:01;99189.50;;;21.12;53.02
73692;BME280;61996;49.910;35.562;2023-05-23T06:52:15;99192.00;;;21.05;53.84
73692;BME280;61996;49.910;35.562;2023-05-23T06:55:17;99189.13;;;20.98;53.90
73692;BME280;61996;49.910;35.562;2023-05-23T06:58:20;99191.00;;;21.06;54.00
73692;BME280;61996;49.910;35.562;2023-05-23T07:01:25;99183.75;;;20.82;54.97
73692;BME280;61996;49.910;35.562;2023-05-23T07:04:30;99181.00;;;21.24;53.54
73692;BME280;61996;49.910;35.562;2023-05-23T07:07:33;99183.66;;;21.08;54.42
73692;BME280;61996;49.910;35.562;2023-05-23T07:10:36;99174.41;;;22.80;48.45
73692;BME280;61996;49.910;35.562;2023-05-23T07:13:47;99173.75;;;23.17;47.49
73692;BME280;61996;49.910;35.562;2023-05-23T07:16:50;99167.28;;;23.27;47.18
73692;BME280;61996;49.910;35.562;2023-05-23T07:19:54;99170.94;;;23.34;46.77
73692;BME280;61996;49.910;35.562;2023-05-23T07:22:57;99176.78;;;23.37;46.90
73692;BME280;61996;49.910;35.562;2023-05-23T07:26:01;99175.06;;;23.44;46.77
73692;BME280;61996;49.910;35.562;2023-05-23T07:29:05;99171.66;;;23.50;46.63
73692;BME280;61996;49.910;35.562;2023-05-23T07:32:12;99169.06;;;23.57;46.42
73692;BME280;61996;49.910;35.562;2023-05-23T07:35:16;99169.72;;;23.59;46.23
73692;BME280;61996;49.910;35.562;2023-05-23T07:38:19;99165.69;;;23.63;46.20
73692;BME280;61996;49.910;35.562;2023-05-23T07:41:22;99159.97;;;23.66;46.33
73692;BME280;61996;49.910;35.562;2023-05-23T07:44:25;99164.13;;;23.69;46.20
73692;BME280;61996;49.910;35.562;2023-05-23T07:47:28;99165.44;;;23.73;46.10
73692;BME280;61996;49.910;35.562;2023-05-23T07:50:32;99163.41;;;23.75;45.87
73692;BME280;61996;49.910;35.562;2023-05-23T07:53:34;99161.38;;;23.77;45.96
73692;BME280;61996;49.910;35.562;2023-05-23T07:56:41;99160.34;;;23.78;46.06
73692;BME280;61996;49.910;35.562;2023-05-23T07:59:44;99156.50;;;23.81;45.89
73692;BME280;61996;49.910;35.562;2023-05-23T08:02:47;99158.59;;;23.85;45.99
73692;BME280;61996;49.910;35.562;2023-05-23T08:05:51;99154.94;;;23.86;46.02
73692;BME280;61996;49.910;35.562;2023-05-23T08:08:54;99155.56;;;23.88;45.90
73692;BME280;61996;49.910;35.562;2023-05-23T08:11:57;99158.91;;;23.90;45.95
73692;BME280;61996;49.910;35.562;2023-05-23T08:15:04;99153.34;;;23.92;45.60
73692;BME280;61996;49.910;35.562;2023-05-23T08:18:07;99156.69;;;23.94;45.69
73692;BME280;61996;49.910;35.562;2023-05-23T08:21:11;99152.34;;;23.93;45.85
73692;BME280;61996;49.910;35.562;2023-05-23T08:24:14;99151.78;;;23.97;45.94
73692;BME280;61996;49.910;35.562;2023-05-23T08:27:19;99154.66;;;23.96;45.74
73692;BME280;61996;49.910;35.562;2023-05-23T08:30:22;99158.16;;;23.96;45.66
73692;BME280;61996;49.910;35.562;2023-05-23T08:33:25;99151.00;;;23.74;47.41
73692;BME280;61996;49.910;35.562;2023-05-23T08:36:30;99160.34;;;22.86;49.41
73692;BME280;61996;49.910;35.562;2023-05-23T08:39:34;99162.06;;;22.71;50.39
73692;BME280;61996;49.910;35.562;2023-05-23T08:42:37;99165.25;;;22.66;49.56
73692;BME280;61996;49.910;35.562;2023-05-23T08:45:40;99158.69;;;23.77;47.13
73692;BME280;61996;49.910;35.562;2023-05-23T08:48:43;99147.06;;;23.99;46.14
73692;BME280;61996;49.910;35.562;2023-05-23T08:51:51;99150.13;;;23.96;46.34
73692;BME280;61996;49.910;35.562;2023-05-23T08:54:54;99152.78;;;23.96;46.38
73692;BME280;61996;49.910;35.562;2023-05-23T08:57:57;99147.06;;;23.99;46.21
73692;BME280;61996;49.910;35.562;2023-05-23T09:01:01;99141.31;;;24.02;46.25
73692;BME280;61996;49.910;35.562;2023-05-23T09:04:04;99144.84;;;24.03;45.79
73692;BME280;61996;49.910;35.562;2023-05-23T09:07:09;99147.22;;;23.98;45.89
73692;BME280;61996;49.910;35.562;2023-05-23T09:10:13;99142.34;;;24.01;45.27
73692;BME280;61996;49.910;35.562;2023-05-23T09:13:17;99148.72;;;23.86;45.69
73692;BME280;61996;49.910;35.562;2023-05-23T09:16:20;99135.91;;;23.73;45.89
73692;BME280;61996;49.910;35.562;2023-05-23T09:19:23;99143.88;;;23.81;45.57
73692;BME280;61996;49.910;35.562;2023-05-23T09:22:28;99143.50;;;23.84;45.24
73692;BME280;61996;49.910;35.562;2023-05-23T09:25:31;99144.81;;;23.88;45.23
73692;BME280;61996;49.910;35.562;2023-05-23T09:28:34;99134.81;;;23.82;45.94
73692;BME280;61996;49.910;35.562;2023-05-23T09:31:37;99148.03;;;23.69;46.04
73692;BME280;61996;49.910;35.562;2023-05-23T09:34:40;99138.22;;;23.76;45.87
73692;BME280;61996;49.910;35.562;2023-05-23T09:37:45;99135.84;;;23.81;45.69
73692;BME280;61996;49.910;35.562;2023-05-23T09:40:48;99125.75;;;23.83;45.47
73692;BME280;61996;49.910;35.562;2023-05-23T09:43:51;99135.31;;;23.86;45.74
73692;BME280;61996;49.910;35.562;2023-05-23T09:46:55;99134.44;;;23.85;45.68
73692;BME280;61996;49.910;35.562;2023-05-23T09:49:58;99134.28;;;23.87;45.52
73692;BME280;61996;49.910;35.562;2023-05-23T09:53:02;99127.78;;;23.81;46.25
73692;BME280;61996;49.910;35.562;2023-05-23T09:56:05;99125.09;;;23.81;45.85
73692;BME280;61996;49.910;35.562;2023-05-23T09:59:09;99132.03;;;23.75;46.14
73692;BME280;61996;49.910;35.562;2023-05-23T10:02:15;99130.09;;;23.84;46.01
73692;BME280;61996;49.910;35.562;2023-05-23T10:05:24;99128.53;;;23.90;46.06
73692;BME280;61996;49.910;35.562;2023-05-23T10:08:35;99128.53;;;23.90;45.74
73692;BME280;61996;49.910;35.562;2023-05-23T10:15:00;99132.88;;;23.91;45.63
73692;BME280;61996;49.910;35.562;2023-05-23T10:18:08;99126.94;;;23.66;46.45
73692;BME280;61996;49.910;35.562;2023-05-23T10:21:14;99129.22;;;23.69;46.17
73692;BME280;61996;49.910;35.562;2023-05-23T10:24:23;99126.38;;;23.70;46.11
73692;BME280;61996;49.910;35.562;2023-05-23T10:27:26;99126.75;;;23.82;46.02
73692;BME280;61996;49.910;35.562;2023-05-23T10:30:29;99128.63;;;23.82;45.77
73692;BME280;61996;49.910;35.562;2023-05-23T10:33:33;99130.56;;;23.88;45.72
73692;BME280;61996;49.910;35.562;2023-05-23T10:36:39;99124.66;;;23.92;45.30
73692;BME280;61996;49.910;35.562;2023-05-23T10:39:48;99120.28;;;23.91;45.76
73692;BME280;61996;49.910;35.562;2023-05-23T10:42:55;99118.06;;;23.95;45.82
73692;BME280;61996;49.910;35.562;2023-05-23T10:46:00;99121.22;;;23.98;46.17
73692;BME280;61996;49.910;35.562;2023-05-23T10:49:03;99118.16;;;23.87;45.82
73692;BME280;61996;49.910;35.562;2023-05-23T10:52:12;99121.69;;;23.87;45.73
73692;BME280;61996;49.910;35.562;2023-05-23T10:55:21;99120.22;;;23.99;45.79
73692;BME280;61996;49.910;35.562;2023-05-23T10:58:24;99119.72;;;23.96;45.57
73692;BME280;61996;49.910;35.562;2023-05-23T11:01:26;99117.88;;;23.96;45.28
73692;BME280;61996;49.910;35.562;2023-05-23T11:04:29;99124.06;;;23.82;45.98
73692;BME280;61996;49.910;35.562;2023-05-23T11:07:32;99124.19;;;23.89;45.87
73692;BME280;61996;49.910;35.562;2023-05-23T11:10:52;99122.13;;;23.91;46.21
73692;BME280;61996;49.910;35.562;2023-05-23T11:13:55;99121.78;;;23.94;46.47
73692;BME280;61996;49.910;35.562;2023-05-23T11:17:13;99123.63;;;23.93;46.50
73692;BME280;61996;49.910;35.562;2023-05-23T11:20:17;99124.66;;;23.92;46.27
73692;BME280;61996;49.910;35.562;2023-05-23T11:23:23;99116.22;;;23.95;46.47
73692;BME280;61996;49.910;35.562;2023-05-23T11:26:44;99118.91;;;23.95;46.00
73692;BME280;61996;49.910;35.562;2023-05-23T11:29:55;99111.50;;;23.97;46.58
73692;BME280;61996;49.910;35.562;2023-05-23T11:32:58;99112.50;;;23.96;46.61
73692;BME280;61996;49.910;35.562;2023-05-23T11:36:01;99113.53;;;23.95;46.34
73692;BME280;61996;49.910;35.562;2023-05-23T11:39:05;99114.38;;;23.96;46.22
73692;BME280;61996;49.910;35.562;2023-05-23T11:42:10;99108.81;;;23.97;46.18
73692;BME280;61996;49.910;35.562;2023-05-23T11:45:13;99104.09;;;23.99;46.33
73692;BME280;61996;49.910;35.562;2023-05-23T11:48:15;99103.91;;;24.01;45.97
73692;BME280;61996;49.910;35.562;2023-05-23T11:51:18;99110.13;;;24.01;46.22
73692;BME280;61996;49.910;35.562;2023-05-23T11:54:21;99113.00;;;24.00;45.98
73692;BME280;61996;49.910;35.562;2023-05-23T11:57:26;99113.81;;;24.00;45.99
73692;BME280;61996;49.910;35.562;2023-05-23T12:00:29;99113.44;;;24.03;46.33
73692;BME280;61996;49.910;35.562;2023-05-23T12:03:32;99106.41;;;24.02;46.16
73692;BME280;61996;49.910;35.562;2023-05-23T12:06:36;99104.47;;;23.96;46.28
73692;BME280;61996;49.910;35.562;2023-05-23T12:09:41;99103.09;;;24.00;46.17
73692;BME280;61996;49.910;35.562;2023-05-23T12:12:45;99098.97;;;24.04;45.98
73692;BME280;61996;49.910;35.562;2023-05-23T12:15:52;99098.97;;;24.04;45.71
73692;BME280;61996;49.910;35.562;2023-05-23T12:18:55;99094.25;;;23.92;46.47
73692;BME280;61996;49.910;35.562;2023-05-23T12:22:04;99103.91;;;24.01;47.06
73692;BME280;61996;49.910;35.562;2023-05-23T12:25:07;99101.97;;;23.95;46.80
73692;BME280;61996;49.910;35.562;2023-05-23T12:28:11;99100.66;;;24.05;46.16
73692;BME280;61996;49.910;35.562;2023-05-23T12:31:15;99101.66;;;24.04;46.35
73692;BME280;61996;49.910;35.562;2023-05-23T12:34:19;99098.59;;;23.63;49.30
73692;BME280;61996;49.910;35.562;2023-05-23T12:37:22;99091.66;;;23.31;51.55
73692;BME280;61996;49.910;35.562;2023-05-23T12:40:27;99094.78;;;23.35;50.82
73692;BME280;61996;49.910;35.562;2023-05-23T12:43:31;99097.78;;;23.40;50.95
73692;BME280;61996;49.910;35.562;2023-05-23T12:46:34;99096.28;;;23.37;51.07
73692;BME280;61996;49.910;35.562;2023-05-23T12:49:37;99089.16;;;23.30;52.00
73692;BME280;61996;49.910;35.562;2023-05-23T12:52:40;99094.84;;;23.27;51.56
73692;BME280;61996;49.910;35.562;2023-05-23T12:55:43;99094.97;;;23.33;50.34
73692;BME280;61996;49.910;35.562;2023-05-23T12:58:47;99098.19;;;23.29;51.36
73692;BME280;61996;49.910;35.562;2023-05-23T13:01:50;99092.72;;;23.22;51.50
73692;BME280;61996;49.910;35.562;2023-05-23T13:04:53;99102.94;;;23.04;51.87
73692;BME280;61996;49.910;35.562;2023-05-23T13:07:57;99094.31;;;23.08;51.87
73692;BME280;61996;49.910;35.562;2023-05-23T13:11:00;99090.03;;;22.99;51.81
73692;BME280;61996;49.910;35.562;2023-05-23T13:14:04;99092.25;;;22.95;52.43
73692;BME280;61996;49.910;35.562;2023-05-23T13:17:07;99087.66;;;22.73;52.98
73692;BME280;61996;49.910;35.562;2023-05-23T13:20:10;99087.97;;;22.78;52.87
73692;BME280;61996;49.910;35.562;2023-05-23T13:23:14;99085.75;;;22.90;52.09
73692;BME280;61996;49.910;35.562;2023-05-23T13:26:17;99094.41;;;22.69;52.80
73692;BME280;61996;49.910;35.562;2023-05-23T13:29:21;99095.78;;;22.96;51.68
73692;BME280;61996;49.910;35.562;2023-05-23T13:32:24;99085.78;;;23.50;50.05
73692;BME280;61996;49.910;35.562;2023-05-23T13:35:27;99080.00;;;24.06;48.08
73692;BME280;61996;49.910;35.562;2023-05-23T13:38:30;99081.47;;;24.23;47.85
73692;BME280;61996;49.910;35.562;2023-05-23T13:41:33;99078.41;;;24.26;47.27
73692;BME280;61996;49.910;35.562;2023-05-23T13:44:37;99078.25;;;24.28;47.12
73692;BME280;61996;49.910;35.562;2023-05-23T13:47:40;99076.19;;;24.30;47.08
73692;BME280;61996;49.910;35.562;2023-05-23T13:50:43;99085.59;;;24.34;47.09
73692;BME280;61996;49.910;35.562;2023-05-23T13:53:46;99084.66;;;24.42;46.79
73692;BME280;61996;49.910;35.562;2023-05-23T13:56:49;99081.22;;;24.33;46.26
73692;BME280;61996;49.910;35.562;2023-05-23T13:59:53;99080.00;;;24.36;46.76
73692;BME280;61996;49.910;35.562;2023-05-23T14:02:56;99078.78;;;24.38;46.40
73692;BME280;61996;49.910;35.562;2023-05-23T14:05:59;99081.03;;;24.35;46.33
73692;BME280;61996;49.910;35.562;2023-05-23T14:09:01;99086.69;;;23.81;49.10
73692;BME280;61996;49.910;35.562;2023-05-23T14:12:04;99077.88;;;23.72;49.21
73692;BME280;61996;49.910;35.562;2023-05-23T14:15:10;99073.28;;;23.20;51.20
73692;BME280;61996;49.910;35.562;2023-05-23T14:18:12;99075.06;;;23.28;51.45
73692;BME280;61996;49.910;35.562;2023-05-23T14:21:15;99070.06;;;23.24;51.08
73692;BME280;61996;49.910;35.562;2023-05-23T14:24:18;99077.44;;;23.22;51.27
73692;BME280;61996;49.910;35.562;2023-05-23T14:27:22;99067.84;;;23.28;51.61
73692;BME280;61996;49.910;35.562;2023-05-23T14:30:26;99067.00;;;23.50;51.01
73692;BME280;61996;49.910;35.562;2023-05-23T14:33:29;99065.28;;;23.72;50.37
73692;BME280;61996;49.910;35.562;2023-05-23T14:36:31;99066.22;;;23.94;49.52
73692;BME280;61996;49.910;35.562;2023-05-23T14:39:34;99048.63;;;24.06;48.58
73692;BME280;61996;49.910;35.562;2023-05-23T14:42:37;99062.03;;;23.92;49.62
73692;BME280;61996;49.910;35.562;2023-05-23T14:45:42;99056.94;;;23.67;50.42
73692;BME280;61996;49.910;35.562;2023-05-23T14:48:45;99057.69;;;23.76;50.08
73692;BME280;61996;49.910;35.562;2023-05-23T14:51:48;99054.53;;;24.17;48.04
73692;BME280;61996;49.910;35.562;2023-05-23T14:54:52;99057.03;;;24.33;47.79
73692;BME280;61996;49.910;35.562;2023-05-23T14:57:55;99053.59;;;24.39;46.96
73692;BME280;61996;49.910;35.562;2023-05-23T15:00:59;99044.13;;;24.43;47.27
73692;BME280;61996;49.910;35.562;2023-05-23T15:04:02;99044.78;;;24.45;47.01
73692;BME280;61996;49.910;35.562;2023-05-23T15:07:10;99046.91;;;24.50;46.91
73692;BME280;61996;49.910;35.562;2023-05-23T15:10:14;99040.50;;;24.51;46.73
73692;BME280;61996;49.910;35.562;2023-05-23T15:13:16;99044.00;;;24.51;46.71
73692;BME280;61996;49.910;35.562;2023-05-23T15:16:21;99045.69;;;24.52;46.81
73692;BME280;61996;49.910;35.562;2023-05-23T15:19:23;99045.03;;;24.50;46.60
73692;BME280;61996;49.910;35.562;2023-05-23T15:22:28;99037.63;;;24.52;46.89
73692;BME280;61996;49.910;35.562;2023-05-23T15:25:40;99043.19;;;24.51;46.43
73692;BME280;61996;49.910;35.562;2023-05-23T15:28:51;99039.66;;;24.50;46.54
73692;BME280;61996;49.910;35.562;2023-05-23T15:31:55;99042.34;;;24.50;46.34
73692;BME280;61996;49.910;35.562;2023-05-23T15:34:58;99043.19;;;24.51;46.34
73692;BME280;61996;49.910;35.562;2023-05-23T15:38:01;99042.97;;;24.52;46.34
73692;BME280;61996;49.910;35.562;2023-05-23T15:41:04;99041.53;;;24.50;46.39
73692;BME280;61996;49.910;35.562;2023-05-23T15:44:07;99047.53;;;24.52;46.21
73692;BME280;61996;49.910;35.562;2023-05-23T15:47:15;99048.56;;;24.51;46.53
73692;BME280;61996;49.910;35.562;2023-05-23T15:50:19;99047.34;;;24.53;46.45
73692;BME280;61996;49.910;35.562;2023-05-23T15:53:21;99051.69;;;24.54;46.50
73692;BME280;61996;49.910;35.562;2023-05-23T15:56:24;99055.22;;;24.55;46.49
73692;BME280;61996;49.910;35.562;2023-05-23T15:59:28;99049.66;;;24.56;46.40
73692;BME280;61996;49.910;35.562;2023-05-23T16:02:33;99049.00;;;24.54;45.94
73692;BME280;61996;49.910;35.562;2023-05-23T16:05:36;99052.72;;;24.53;46.00